Airfield :
LOGIN :

Register | Disclaimer

   EN    FR    IT 

 










Legend :    VFR   Marginal VFR   IFR   Intensive IFR   Very Intensive IFR
Visi :
Ceiling :
>= 8 km
>= 3000ft
5 to 8 km
1000 to 3000 ft
1500m to 5 km
500 to 1000 ft
800 to 1500m
200 to 500 ft
< 800m
< 200 ft
Symbols :   Thunderstorms  Fog  Heavy snow  Heavy precipitations  Wind > 20 kt
SIGMETs :     Misc.  Thunderstorms  Icing  Turbulence  Mountain Waves  Volcanic Ashes






- Airport Elevation : 24 ft
- IATA code : IBZ


LEIB - Ibiza

CURRENT METAR :
  • 190530Z 01003KT 9999 FEW021 08/08 Q1026 NOSIG

EXPIRED METARs :
  • 190500Z 02003KT 9999 FEW021 07/07 Q1026 NOSIG
  • 190430Z VRB01KT 9999 FEW018 SCT020 07/07 Q1026 NOSIG
  • 190400Z AUTO 34003KT 300V010 9999 FEW018/// SCT021/// 07/07 Q1026
  • 190330Z AUTO VRB02KT 9999 FEW017/// SCT019/// BKN023/// 08/08 Q1026
  • 190300Z AUTO 01003KT 350V060 9999 FEW016/// SCT019/// 07/07 Q1027

TAF TAF LEIB
Valid from the 19 at 03:00 until the 20 at 03:00 UTC


190200Z 1903/2003 19004KT 9999 SCT020 TX16/1912Z TN07/1906Z
PROB30
TEMPO 1903/1908 3000 BR BKN010
BECMG 1906/1908 20010KT



MET'MAP, your aeronautical weather chart ! - Copyright ORBIFLY December 2007 - Disclaimer

ORBIFLY MET'MAP TEAM :

Programming & Development : Alexandra Zaïnal
Concept & original design : Baudouin d'Aumeries
Assistance for programming : Marc-Olivier Méhu
Technical & hardware support : Manuel Goepfert

Contact : metmap@orbifly.com




SOURCES & CREDITS :

   NOAA